createdAt,value
2023-05-04T00:02:14.658Z,99.90
2023-05-04T00:04:43.438Z,99.90
2023-05-04T00:07:12.834Z,99.90
2023-05-04T00:09:40.788Z,99.90
2023-05-04T00:12:08.921Z,99.90
2023-05-04T00:14:37.005Z,99.90
2023-05-04T00:17:06.643Z,99.90
2023-05-04T00:19:35.192Z,99.90
2023-05-04T00:22:03.768Z,99.90
2023-05-04T00:24:33.082Z,99.90
2023-05-04T00:27:01.121Z,99.90
2023-05-04T00:29:29.448Z,99.90
2023-05-04T00:31:57.769Z,99.90
2023-05-04T00:34:25.990Z,99.90
2023-05-04T00:36:54.003Z,99.90
2023-05-04T00:39:21.998Z,99.90
2023-05-04T00:41:52.016Z,99.90
2023-05-04T00:44:23.391Z,99.90
2023-05-04T00:46:52.400Z,99.90
2023-05-04T00:49:21.424Z,99.90
2023-05-04T00:51:50.672Z,99.90
2023-05-04T00:54:18.900Z,99.90
2023-05-04T00:56:47.109Z,99.90
2023-05-04T00:59:16.441Z,99.90
2023-05-04T01:01:44.484Z,99.90
2023-05-04T01:04:12.961Z,99.90
2023-05-04T01:06:47.203Z,99.90
2023-05-04T01:09:24.614Z,99.90
2023-05-04T01:11:59.270Z,99.90
2023-05-04T01:14:31.146Z,99.90
2023-05-04T01:17:00.392Z,99.90
2023-05-04T01:19:29.301Z,99.90
2023-05-04T01:21:58.672Z,99.90
2023-05-04T01:24:27.879Z,99.90
2023-05-04T01:27:00.526Z,99.90
2023-05-04T01:29:35.625Z,99.90
2023-05-04T01:32:04.046Z,99.90
2023-05-04T01:34:32.289Z,99.90
2023-05-04T01:37:03.396Z,99.90
2023-05-04T01:39:31.350Z,99.90
2023-05-04T01:41:59.879Z,99.90
2023-05-04T01:44:27.873Z,99.90
2023-05-04T01:46:56.148Z,99.90
2023-05-04T01:49:24.143Z,99.90
2023-05-04T01:51:52.147Z,99.90
2023-05-04T01:54:21.502Z,99.90
2023-05-04T01:56:49.487Z,99.90
2023-05-04T01:59:17.502Z,99.90
2023-05-04T02:01:45.545Z,99.90
2023-05-04T02:04:13.645Z,99.90
2023-05-04T02:06:41.607Z,99.90
2023-05-04T02:09:09.637Z,99.90
2023-05-04T02:11:38.945Z,99.90
2023-05-04T02:14:06.963Z,99.90
2023-05-04T02:16:35.001Z,99.90
2023-05-04T02:19:03.099Z,99.90
2023-05-04T02:21:31.104Z,99.90
2023-05-04T02:23:59.231Z,99.90
2023-05-04T02:26:27.155Z,99.90
2023-05-04T02:28:56.532Z,99.90
2023-05-04T02:31:25.049Z,99.90
2023-05-04T02:33:54.099Z,99.90
2023-05-04T02:36:22.251Z,99.90
2023-05-04T02:38:50.750Z,99.90
2023-05-04T02:41:18.773Z,99.90
2023-05-04T02:43:46.710Z,99.90
2023-05-04T02:46:16.134Z,99.90
2023-05-04T02:48:44.186Z,99.90
2023-05-04T02:51:12.279Z,99.90
2023-05-04T02:53:40.286Z,99.90
2023-05-04T02:56:08.529Z,99.90
2023-05-04T02:58:36.713Z,99.90
2023-05-04T03:01:04.798Z,99.90
2023-05-04T03:03:36.516Z,99.90
2023-05-04T03:06:04.669Z,99.90
2023-05-04T03:08:32.615Z,99.90
2023-05-04T03:11:00.633Z,99.90
2023-05-04T03:13:28.598Z,99.90
2023-05-04T03:15:56.548Z,99.90
2023-05-04T03:18:24.554Z,99.90
2023-05-04T03:20:54.177Z,99.90
2023-05-04T03:23:23.366Z,99.90
2023-05-04T03:25:51.659Z,99.90
2023-05-04T03:28:19.969Z,99.90
2023-05-04T03:30:48.059Z,99.90
2023-05-04T03:33:16.129Z,99.90
2023-05-04T03:35:44.540Z,99.90
2023-05-04T03:38:14.204Z,99.90
2023-05-04T03:40:44.520Z,99.90
2023-05-04T03:43:13.833Z,99.90
2023-05-04T03:45:41.862Z,99.90
2023-05-04T03:48:09.896Z,99.90
2023-05-04T03:50:37.933Z,99.90
2023-05-04T03:53:07.355Z,99.90
2023-05-04T03:55:36.977Z,99.90
2023-05-04T03:58:06.573Z,99.90
2023-05-04T04:00:35.099Z,99.90
2023-05-04T04:03:11.212Z,99.90
2023-05-04T04:05:42.442Z,99.90
2023-05-04T04:08:10.567Z,99.90
2023-05-04T04:10:40.841Z,99.90
2023-05-04T04:13:08.910Z,99.90
2023-05-04T04:15:38.025Z,99.90
2023-05-04T04:18:06.050Z,99.90
2023-05-04T04:20:34.329Z,99.90
2023-05-04T04:23:02.304Z,99.90
2023-05-04T04:25:30.376Z,99.90
2023-05-04T04:27:59.727Z,99.90
2023-05-04T04:30:27.690Z,99.90
2023-05-04T04:32:57.176Z,99.90
2023-05-04T04:35:25.189Z,99.90
2023-05-04T04:37:53.153Z,99.90
2023-05-04T04:40:22.504Z,99.90
2023-05-04T04:42:50.523Z,99.90
2023-05-04T04:45:20.447Z,99.90
2023-05-04T04:47:48.461Z,99.90
2023-05-04T04:50:16.588Z,99.90
2023-05-04T04:52:44.549Z,99.90
2023-05-04T04:55:13.169Z,99.90
2023-05-04T04:57:41.273Z,99.90
2023-05-04T05:00:10.641Z,99.90
2023-05-04T05:02:40.041Z,99.90
2023-05-04T05:05:09.569Z,99.90
2023-05-04T05:07:37.570Z,99.90
2023-05-04T05:10:06.488Z,99.90
2023-05-04T05:12:34.626Z,99.90
2023-05-04T05:15:04.315Z,99.90
2023-05-04T05:17:32.370Z,99.90
2023-05-04T05:20:01.710Z,99.90
2023-05-04T05:22:29.691Z,99.90
2023-05-04T05:24:57.807Z,99.90
2023-05-04T05:27:25.861Z,99.90
2023-05-04T05:29:54.066Z,99.90
2023-05-04T05:32:22.319Z,99.90
2023-05-04T05:34:50.384Z,99.90
2023-05-04T05:37:19.719Z,99.90
2023-05-04T05:39:47.770Z,99.90
2023-05-04T05:42:15.723Z,99.90
2023-05-04T05:44:43.776Z,99.90
2023-05-04T05:47:11.773Z,99.90
2023-05-04T05:49:39.750Z,99.90
2023-05-04T05:52:07.978Z,99.90
2023-05-04T05:54:37.996Z,99.90
2023-05-04T05:57:06.085Z,99.90
2023-05-04T05:59:34.084Z,99.90
2023-05-04T06:02:02.023Z,99.90
2023-05-04T06:04:30.161Z,99.90
2023-05-04T06:06:58.142Z,99.90
2023-05-04T06:09:26.134Z,99.90
2023-05-04T06:11:55.718Z,99.90
2023-05-04T06:14:23.809Z,99.30
2023-05-04T06:16:51.760Z,98.60
2023-05-04T06:19:19.755Z,99.90
2023-05-04T06:21:49.984Z,99.90
2023-05-04T06:24:17.985Z,99.90
2023-05-04T06:26:46.301Z,99.90
2023-05-04T06:29:15.638Z,99.90
2023-05-04T06:31:43.976Z,99.90
2023-05-04T06:34:13.044Z,99.90
2023-05-04T06:36:41.004Z,99.70
2023-05-04T06:39:08.942Z,99.90
2023-05-04T06:41:37.095Z,99.90
2023-05-04T06:44:05.991Z,98.80
2023-05-04T06:46:37.952Z,99.90
2023-05-04T06:49:05.939Z,99.90
2023-05-04T06:51:35.773Z,99.90
2023-05-04T06:54:03.802Z,99.90
2023-05-04T06:56:32.347Z,99.60
2023-05-04T06:59:00.437Z,99.90
2023-05-04T07:01:28.478Z,99.90
2023-05-04T07:03:58.844Z,98.60
2023-05-04T07:06:27.409Z,98.10
2023-05-04T07:08:55.399Z,98.40
2023-05-04T07:11:23.481Z,98.00
2023-05-04T07:13:51.645Z,98.30
2023-05-04T07:16:19.669Z,98.30
2023-05-04T07:18:47.678Z,96.50
2023-05-04T07:21:27.529Z,96.80
2023-05-04T07:23:56.137Z,97.60
2023-05-04T07:26:24.373Z,97.00
2023-05-04T07:28:54.330Z,97.00
2023-05-04T07:31:22.333Z,97.00
2023-05-04T07:33:50.766Z,96.60
2023-05-04T07:36:20.601Z,97.10
2023-05-04T07:38:48.858Z,96.50
2023-05-04T07:41:16.820Z,97.20
2023-05-04T07:43:44.856Z,97.30
2023-05-04T07:46:12.916Z,97.50
2023-05-04T07:48:40.964Z,97.30
2023-05-04T07:51:13.977Z,97.20
2023-05-04T07:53:43.647Z,98.30
2023-05-04T07:56:12.707Z,97.00
2023-05-04T07:58:41.267Z,96.60
2023-05-04T08:01:09.334Z,97.40
2023-05-04T08:03:37.335Z,97.80
2023-05-04T08:06:05.414Z,96.10
2023-05-04T08:08:33.386Z,96.50
2023-05-04T08:11:15.999Z,96.80
2023-05-04T08:13:47.895Z,96.50
2023-05-04T08:16:16.134Z,96.30
2023-05-04T08:18:44.470Z,96.10
2023-05-04T08:21:12.519Z,95.40
2023-05-04T08:23:40.499Z,96.40
2023-05-04T08:26:09.835Z,95.40
2023-05-04T08:28:40.113Z,95.00
2023-05-04T08:31:08.193Z,95.50
2023-05-04T08:33:36.221Z,96.50
2023-05-04T08:36:05.282Z,95.40
2023-05-04T08:38:33.254Z,95.10
2023-05-04T08:41:03.467Z,96.00
2023-05-04T08:43:35.377Z,95.20
2023-05-04T08:46:04.759Z,94.00
2023-05-04T08:48:33.793Z,93.90
2023-05-04T08:51:04.207Z,94.00
2023-05-04T08:53:33.646Z,93.40
2023-05-04T08:56:04.490Z,94.10
2023-05-04T08:58:37.739Z,93.60
2023-05-04T09:01:08.331Z,92.80
2023-05-04T09:03:36.690Z,92.80
2023-05-04T09:06:05.190Z,92.50
2023-05-04T09:08:33.253Z,92.70
2023-05-04T09:11:01.403Z,93.00
2023-05-04T09:13:29.372Z,92.40
2023-05-04T09:15:59.603Z,91.50
2023-05-04T09:18:38.138Z,91.20
2023-05-04T09:21:06.676Z,90.20
2023-05-04T09:23:35.164Z,88.40
2023-05-04T09:26:03.155Z,85.70
2023-05-04T09:28:39.139Z,84.70
2023-05-04T09:31:08.901Z,84.90
2023-05-04T09:33:37.102Z,85.00
2023-05-04T09:36:15.760Z,86.60
2023-05-04T09:38:44.176Z,85.60
2023-05-04T09:41:12.551Z,85.00
2023-05-04T09:43:41.771Z,84.80
2023-05-04T09:46:19.149Z,86.20
2023-05-04T09:48:55.003Z,82.90
2023-05-04T09:51:24.756Z,81.20
2023-05-04T09:53:53.855Z,85.30
2023-05-04T09:56:31.057Z,82.50
2023-05-04T09:58:59.898Z,80.40
2023-05-04T10:01:30.460Z,80.70
2023-05-04T10:03:58.778Z,83.70
2023-05-04T10:06:30.038Z,83.10
2023-05-04T10:09:00.453Z,81.90
2023-05-04T10:11:29.600Z,82.70
2023-05-04T10:13:57.820Z,79.00
2023-05-04T10:16:37.722Z,80.80
2023-05-04T10:19:29.274Z,79.70
2023-05-04T10:22:16.535Z,83.30
2023-05-04T10:25:07.349Z,80.50
2023-05-04T10:27:51.066Z,78.10
2023-05-04T10:30:20.312Z,84.30
2023-05-04T10:32:55.974Z,77.00
2023-05-04T10:35:24.891Z,74.30
2023-05-04T10:37:54.579Z,76.30
2023-05-04T10:40:35.212Z,75.60
2023-05-04T10:43:03.253Z,74.10
2023-05-04T10:45:38.728Z,75.20
2023-05-04T10:48:09.006Z,76.00
2023-05-04T10:50:44.476Z,76.30
2023-05-04T10:53:13.552Z,77.10
2023-05-04T10:55:42.626Z,79.10
2023-05-04T10:58:11.464Z,77.40
2023-05-04T11:00:40.628Z,76.10
2023-05-04T11:03:11.861Z,76.60
2023-05-04T11:05:44.622Z,74.60
2023-05-04T11:08:19.338Z,72.00
2023-05-04T11:10:48.331Z,72.00
2023-05-04T11:13:17.054Z,74.00
2023-05-04T11:15:46.350Z,73.50
2023-05-04T11:18:17.934Z,70.20
2023-05-04T11:20:47.023Z,69.60
2023-05-04T11:23:17.449Z,71.70
2023-05-04T11:25:45.717Z,70.20
2023-05-04T11:28:14.655Z,67.40
2023-05-04T11:30:44.501Z,68.00
2023-05-04T11:33:14.034Z,66.80
2023-05-04T11:35:44.858Z,67.90
2023-05-04T11:38:18.438Z,66.70
2023-05-04T11:40:49.088Z,69.00
2023-05-04T11:43:17.939Z,67.30
2023-05-04T11:45:49.468Z,69.10
2023-05-04T11:48:18.737Z,67.40
2023-05-04T11:50:49.015Z,70.40
2023-05-04T11:53:21.465Z,66.50
2023-05-04T11:55:49.660Z,67.90
2023-05-04T11:58:25.486Z,67.70
2023-05-04T12:00:57.348Z,64.30
2023-05-04T12:03:32.408Z,66.80
2023-05-04T12:06:09.272Z,65.40
2023-05-04T12:08:42.108Z,63.10
2023-05-04T12:11:14.562Z,62.80
2023-05-04T12:13:43.660Z,63.90
2023-05-04T12:16:12.651Z,59.90
2023-05-04T12:18:41.004Z,58.10
2023-05-04T12:21:12.035Z,58.40
2023-05-04T12:23:40.552Z,56.70
2023-05-04T12:26:08.958Z,56.80
2023-05-04T12:28:37.564Z,58.40
2023-05-04T12:31:06.875Z,59.50
2023-05-04T12:33:35.984Z,60.80
2023-05-04T12:36:06.173Z,61.40
2023-05-04T12:38:35.893Z,59.30
2023-05-04T12:41:04.501Z,57.00
2023-05-04T12:43:33.204Z,58.90
2023-05-04T12:46:01.525Z,56.70
2023-05-04T12:48:31.980Z,57.90
2023-05-04T12:51:00.572Z,56.80
2023-05-04T12:53:29.988Z,56.80
2023-05-04T12:56:00.016Z,56.00
2023-05-04T12:58:28.577Z,54.40
2023-05-04T13:00:57.773Z,54.90
2023-05-04T13:03:25.930Z,55.30
2023-05-04T13:05:54.040Z,55.20
2023-05-04T13:08:22.019Z,53.50
2023-05-04T13:10:50.032Z,55.30
2023-05-04T13:13:21.240Z,58.30
2023-05-04T13:15:51.671Z,57.80
2023-05-04T13:18:19.684Z,57.10
2023-05-04T13:20:47.699Z,58.80
2023-05-04T13:23:15.746Z,55.60
2023-05-04T13:25:43.773Z,57.00
2023-05-04T13:28:11.758Z,58.60
2023-05-04T13:30:41.080Z,53.80
2023-05-04T13:33:17.143Z,54.10
2023-05-04T13:35:56.865Z,53.50
2023-05-04T13:38:24.944Z,55.10
2023-05-04T13:40:52.868Z,54.60
2023-05-04T13:43:20.954Z,60.70
2023-05-04T13:45:50.271Z,59.60
2023-05-04T13:48:18.356Z,55.20
2023-05-04T13:50:46.390Z,53.10
2023-05-04T13:53:14.345Z,55.40
2023-05-04T13:55:42.316Z,57.20
2023-05-04T13:58:10.310Z,55.70
2023-05-04T14:00:38.365Z,51.90
2023-05-04T14:03:07.858Z,54.40
2023-05-04T14:05:36.499Z,56.50
2023-05-04T14:08:04.587Z,55.50
2023-05-04T14:10:33.114Z,58.60
2023-05-04T14:13:01.484Z,58.80
2023-05-04T14:15:29.642Z,58.30
2023-05-04T14:17:57.630Z,55.30
2023-05-04T14:20:27.057Z,56.30
2023-05-04T14:22:55.032Z,56.90
2023-05-04T14:25:23.055Z,54.20
2023-05-04T14:27:51.000Z,56.20
2023-05-04T14:30:18.996Z,54.60
2023-05-04T14:32:47.204Z,56.60
2023-05-04T14:35:16.289Z,58.00
2023-05-04T14:37:49.248Z,57.70
2023-05-04T14:40:17.641Z,59.80
2023-05-04T14:42:45.675Z,57.30
2023-05-04T14:45:14.602Z,57.10
2023-05-04T14:47:43.429Z,57.50
2023-05-04T14:50:13.160Z,54.30
2023-05-04T14:52:41.558Z,54.30
2023-05-04T14:55:12.017Z,55.60
2023-05-04T14:57:40.112Z,56.70
2023-05-04T15:00:09.998Z,55.30
2023-05-04T15:02:39.161Z,58.70
2023-05-04T15:05:09.760Z,57.30
2023-05-04T15:07:37.799Z,53.90
2023-05-04T15:10:07.861Z,53.20
2023-05-04T15:12:38.216Z,52.40
2023-05-04T15:15:07.040Z,55.10
2023-05-04T15:17:35.063Z,54.00
2023-05-04T15:20:03.348Z,56.90
2023-05-04T15:22:31.346Z,56.00
2023-05-04T15:24:59.391Z,57.90
2023-05-04T15:27:27.358Z,57.50
2023-05-04T15:29:56.702Z,54.90
2023-05-04T15:32:24.791Z,55.00
2023-05-04T15:35:04.691Z,56.80
2023-05-04T15:37:33.592Z,53.40
2023-05-04T15:40:02.648Z,52.90
2023-05-04T15:42:31.008Z,52.20
2023-05-04T15:45:00.431Z,53.50
2023-05-04T15:47:28.440Z,57.90
2023-05-04T15:49:56.462Z,55.60
2023-05-04T15:52:24.869Z,54.50
2023-05-04T15:54:52.889Z,56.40
2023-05-04T15:57:20.984Z,53.30
2023-05-04T15:59:49.689Z,52.00
2023-05-04T16:02:19.700Z,52.50
2023-05-04T16:04:47.726Z,51.40
2023-05-04T16:07:15.875Z,54.40
2023-05-04T16:09:43.848Z,52.00
2023-05-04T16:12:12.102Z,53.00
2023-05-04T16:14:40.347Z,52.10
2023-05-04T16:17:08.385Z,51.20
2023-05-04T16:19:38.087Z,50.90
2023-05-04T16:22:06.203Z,53.10
2023-05-04T16:24:34.328Z,51.40
2023-05-04T16:27:03.313Z,50.30
2023-05-04T16:29:31.277Z,53.20
2023-05-04T16:31:59.264Z,53.80
2023-05-04T16:34:27.222Z,51.20
2023-05-04T16:36:56.656Z,49.30
2023-05-04T16:39:29.971Z,49.90
2023-05-04T16:41:58.375Z,49.40
2023-05-04T16:44:26.631Z,51.40
2023-05-04T16:46:54.723Z,50.00
2023-05-04T16:49:22.746Z,50.40
2023-05-04T16:51:50.789Z,51.40
2023-05-04T16:54:21.047Z,49.70
2023-05-04T16:56:49.098Z,50.80
2023-05-04T16:59:17.452Z,52.20
2023-05-04T17:01:45.547Z,53.40
2023-05-04T17:04:13.571Z,53.50
2023-05-04T17:06:41.532Z,53.80
2023-05-04T17:09:09.843Z,51.30
2023-05-04T17:11:39.182Z,52.00
2023-05-04T17:14:07.213Z,52.90
2023-05-04T17:16:35.269Z,51.80
2023-05-04T17:19:03.575Z,51.60
2023-05-04T17:21:31.534Z,51.90
2023-05-04T17:23:59.491Z,52.70
2023-05-04T17:26:27.592Z,54.50
2023-05-04T17:28:56.909Z,52.40
2023-05-04T17:31:24.947Z,56.00
2023-05-04T17:33:52.946Z,55.50
2023-05-04T17:36:20.901Z,55.30
2023-05-04T17:38:48.892Z,54.70
2023-05-04T17:41:17.062Z,51.40
2023-05-04T17:43:45.656Z,54.10
2023-05-04T17:46:15.134Z,52.90
2023-05-04T17:48:44.522Z,54.00
2023-05-04T17:51:12.528Z,54.10
2023-05-04T17:53:40.501Z,54.30
2023-05-04T17:56:08.487Z,55.20
2023-05-04T17:58:36.705Z,55.40
2023-05-04T18:01:04.684Z,54.10
2023-05-04T18:03:34.109Z,54.50
2023-05-04T18:06:02.640Z,54.70
2023-05-04T18:08:30.580Z,55.50
2023-05-04T18:10:58.582Z,55.90
2023-05-04T18:13:26.686Z,56.00
2023-05-04T18:15:54.698Z,56.90
2023-05-04T18:18:22.692Z,56.50
2023-05-04T18:20:52.339Z,56.50
2023-05-04T18:23:20.381Z,57.20
2023-05-04T18:25:48.366Z,56.10
2023-05-04T18:28:17.252Z,55.50
2023-05-04T18:30:45.358Z,56.60
2023-05-04T18:33:13.354Z,56.60
2023-05-04T18:35:41.284Z,56.30
2023-05-04T18:38:12.284Z,56.50
2023-05-04T18:40:40.293Z,56.90
2023-05-04T18:43:08.316Z,57.20
2023-05-04T18:45:36.615Z,57.50
2023-05-04T18:48:04.740Z,57.80
2023-05-04T18:50:32.703Z,58.60
2023-05-04T18:53:01.347Z,59.50
2023-05-04T18:55:30.791Z,60.60
2023-05-04T18:57:59.099Z,60.90
2023-05-04T19:00:27.614Z,61.20
2023-05-04T19:02:56.542Z,60.40
2023-05-04T19:05:24.683Z,61.10
2023-05-04T19:07:55.194Z,61.80
2023-05-04T19:10:23.213Z,62.00
2023-05-04T19:12:53.262Z,62.50
2023-05-04T19:15:23.073Z,63.40
2023-05-04T19:17:51.437Z,61.60
2023-05-04T19:20:19.724Z,61.90
2023-05-04T19:22:47.799Z,62.60
2023-05-04T19:25:27.122Z,62.90
2023-05-04T19:28:08.388Z,63.50
2023-05-04T19:30:37.138Z,63.90
2023-05-04T19:33:06.109Z,64.30
2023-05-04T19:35:34.276Z,65.00
2023-05-04T19:38:02.461Z,65.10
2023-05-04T19:40:31.048Z,65.90
2023-05-04T19:42:59.078Z,65.90
2023-05-04T19:45:28.590Z,66.40
2023-05-04T19:47:56.769Z,66.40
2023-05-04T19:50:24.889Z,66.80
2023-05-04T19:52:52.893Z,67.90
2023-05-04T19:55:21.469Z,67.30
2023-05-04T19:57:50.016Z,67.90
2023-05-04T20:00:19.429Z,68.40
2023-05-04T20:02:48.988Z,68.90
2023-05-04T20:05:17.156Z,69.40
2023-05-04T20:07:45.641Z,69.80
2023-05-04T20:10:13.746Z,70.30
2023-05-04T20:12:41.984Z,71.20
2023-05-04T20:15:10.931Z,71.40
2023-05-04T20:17:39.003Z,71.70
2023-05-04T20:20:10.675Z,72.70
2023-05-04T20:22:39.266Z,72.20
2023-05-04T20:25:07.691Z,73.00
2023-05-04T20:27:35.712Z,73.40
2023-05-04T20:30:03.772Z,73.50
2023-05-04T20:32:32.039Z,73.70
2023-05-04T20:35:00.090Z,74.10
2023-05-04T20:37:29.415Z,74.80
2023-05-04T20:39:57.429Z,75.40
2023-05-04T20:42:25.780Z,75.90
2023-05-04T20:44:53.746Z,76.90
2023-05-04T20:47:21.734Z,77.60
2023-05-04T20:49:49.747Z,77.40
2023-05-04T20:52:17.690Z,78.60
2023-05-04T20:54:46.977Z,79.90
2023-05-04T20:57:15.024Z,80.70
2023-05-04T20:59:42.998Z,81.70
2023-05-04T21:02:11.404Z,82.20
2023-05-04T21:04:39.403Z,84.00
2023-05-04T21:07:07.378Z,84.80
2023-05-04T21:09:35.292Z,85.80
2023-05-04T21:12:04.848Z,86.50
2023-05-04T21:14:32.777Z,86.40
2023-05-04T21:17:00.854Z,87.40
2023-05-04T21:19:28.914Z,87.60
2023-05-04T21:21:56.857Z,88.00
2023-05-04T21:24:24.832Z,88.00
2023-05-04T21:26:53.329Z,88.30
2023-05-04T21:29:22.642Z,89.80
2023-05-04T21:31:50.618Z,89.80
2023-05-04T21:34:18.790Z,90.00
2023-05-04T21:36:46.754Z,89.30
2023-05-04T21:39:16.648Z,89.60
2023-05-04T21:41:44.609Z,90.30
2023-05-04T21:44:12.546Z,90.50
2023-05-04T21:46:41.886Z,91.00
2023-05-04T21:49:09.834Z,91.20
2023-05-04T21:51:37.813Z,91.00
2023-05-04T21:54:05.846Z,90.80
2023-05-04T21:56:33.795Z,90.30
2023-05-04T21:59:01.715Z,90.90
2023-05-04T22:01:29.709Z,91.40
2023-05-04T22:03:59.175Z,91.50
2023-05-04T22:06:27.171Z,91.20
2023-05-04T22:08:55.118Z,91.40
2023-05-04T22:11:26.114Z,91.30
2023-05-04T22:13:54.184Z,90.30
2023-05-04T22:16:22.137Z,90.00
2023-05-04T22:18:50.594Z,90.70
2023-05-04T22:21:19.897Z,91.20
2023-05-04T22:23:47.841Z,90.80
2023-05-04T22:26:15.983Z,90.90
2023-05-04T22:28:43.988Z,90.50
2023-05-04T22:31:12.056Z,90.40
2023-05-04T22:33:40.092Z,91.00
2023-05-04T22:36:09.027Z,91.20
2023-05-04T22:38:38.310Z,91.20
2023-05-04T22:41:06.797Z,90.90
2023-05-04T22:43:34.777Z,90.80
2023-05-04T22:46:02.768Z,91.50
2023-05-04T22:48:30.711Z,91.60
2023-05-04T22:50:58.670Z,90.90
2023-05-04T22:53:26.610Z,91.10
2023-05-04T22:55:55.902Z,91.10
2023-05-04T22:58:23.874Z,91.30
2023-05-04T23:00:51.850Z,91.60
2023-05-04T23:03:19.879Z,92.00
2023-05-04T23:05:47.964Z,92.40
2023-05-04T23:08:16.047Z,92.30
2023-05-04T23:10:45.997Z,92.20
2023-05-04T23:13:15.357Z,92.20
2023-05-04T23:15:43.402Z,91.70
2023-05-04T23:18:12.248Z,91.80
2023-05-04T23:20:40.254Z,91.70
2023-05-04T23:23:08.227Z,91.70
2023-05-04T23:25:36.379Z,92.00
2023-05-04T23:28:04.638Z,92.40
2023-05-04T23:30:33.943Z,92.70
2023-05-04T23:33:01.939Z,92.60
2023-05-04T23:35:30.060Z,92.80
2023-05-04T23:37:58.059Z,92.90
2023-05-04T23:40:25.991Z,93.20
2023-05-04T23:42:53.986Z,93.20
2023-05-04T23:45:21.964Z,93.40
2023-05-04T23:47:51.472Z,94.00
2023-05-04T23:50:19.613Z,94.20
2023-05-04T23:52:47.554Z,95.20
2023-05-04T23:55:15.660Z,95.50
2023-05-04T23:57:44.530Z,95.70
